Time;durP1;ratioP1;P1;durP2;ratioP2;P2;SDS_P1;SDS_P2;PMS_P1;PMS_P2;Temp;Humidity;BMP_temperature;BMP_pressure;BME280_temperature;BME280_humidity;BME280_pressure;Samples;Min_cycle;Max_cycle;Signal;HPM_P1;HPM_P2
2024/04/05 00:01:32;;;;;;;23.98;4.97;;;16.60;86.50;;;;;;4188079;28;20055;-44
2024/04/05 00:04:12;;;;;;;22.08;4.63;;;16.60;86.50;;;;;;4186482;28;20495;-46
2024/04/05 00:06:52;;;;;;;29.05;6.07;;;16.60;87.40;;;;;;4187986;28;20467;-44
2024/04/05 00:09:33;;;;;;;24.67;4.53;;;16.60;86.70;;;;;;4196636;27;20446;-44
2024/04/05 00:12:12;;;;;;;19.17;4.57;;;16.60;86.80;;;;;;4176661;28;20373;-43
2024/04/05 00:14:52;;;;;;;21.98;4.93;;;16.60;86.90;;;;;;4188438;28;20055;-45
2024/04/05 00:17:30;;;;;;;28.58;4.50;;;16.50;87.00;;;;;;4191344;28;20127;-39
2024/04/05 00:20:12;;;;;;;20.58;5.13;;;16.50;87.10;;;;;;4200461;28;20056;-39
2024/04/05 00:22:52;;;;;;;30.00;5.97;;;16.50;87.10;;;;;;4195923;28;20178;-38
2024/04/05 00:25:32;;;;;;;31.55;6.20;;;16.50;87.20;;;;;;4205036;28;20055;-39
2024/04/05 00:28:12;;;;;;;26.80;5.40;;;16.50;87.20;;;;;;4204793;28;20178;-40
2024/04/05 00:30:51;;;;;;;29.63;5.78;;;16.50;87.30;;;;;;4196350;28;20110;-39
2024/04/05 00:33:31;;;;;;;24.80;4.57;;;16.50;87.20;;;;;;4187807;28;20110;-40
2024/04/05 00:36:14;;;;;;;27.33;5.22;;;16.50;87.30;;;;;;4187994;28;20127;-39
2024/04/05 00:38:55;;;;;;;27.23;4.72;;;16.50;87.50;;;;;;4180166;28;20109;-39
2024/04/05 00:41:35;;;;;;;31.20;6.53;;;16.50;87.50;;;;;;4191082;28;20159;-39
2024/04/05 00:44:14;;;;;;;21.33;4.32;;;16.50;87.50;;;;;;4187697;28;20290;-39
2024/04/05 00:46:56;;;;;;;16.95;4.75;;;16.50;87.50;;;;;;4176920;28;20056;-39
2024/04/05 00:49:35;;;;;;;20.02;4.65;;;16.50;87.50;;;;;;4187440;28;20083;-39
2024/04/05 00:52:16;;;;;;;31.42;5.93;;;16.50;87.60;;;;;;4187836;28;20449;-39
2024/04/05 00:54:56;;;;;;;23.95;4.28;;;16.50;87.60;;;;;;4188546;28;20132;-39
2024/04/05 00:57:36;;;;;;;20.23;4.50;;;16.40;87.50;;;;;;4187438;28;20052;-39
2024/04/05 01:00:16;;;;;;;21.15;4.68;;;16.40;88.30;;;;;;4187309;28;20063;-39
2024/04/05 01:02:56;;;;;;;23.77;5.32;;;16.40;87.50;;;;;;4187317;28;20093;-39
2024/04/05 01:05:38;;;;;;;23.23;4.82;;;16.40;87.40;;;;;;4186678;28;20445;-39
2024/04/05 01:08:18;;;;;;;28.90;4.97;;;16.40;88.10;;;;;;4186068;28;20047;-39
2024/04/05 01:10:59;;;;;;;20.85;4.68;;;16.40;87.60;;;;;;4189901;28;20051;-39
2024/04/05 01:13:39;;;;;;;16.40;4.13;;;16.40;87.50;;;;;;4186775;28;20434;-39
2024/04/05 01:16:18;;;;;;;22.90;3.97;;;16.40;87.40;;;;;;4187563;28;20141;-39
2024/04/05 01:18:58;;;;;;;16.92;3.88;;;16.40;87.40;;;;;;4170797;28;20097;-39
2024/04/05 01:21:37;;;;;;;23.57;5.20;;;16.40;87.40;;;;;;4199236;28;20063;-39
2024/04/05 01:24:19;;;;;;;24.05;4.88;;;16.40;87.40;;;;;;4203876;28;20042;-46
2024/04/05 01:26:58;;;;;;;18.55;4.63;;;16.40;87.40;;;;;;4204184;28;20059;-46
2024/04/05 01:29:38;;;;;;;17.83;4.22;;;16.40;87.30;;;;;;4177174;28;20047;-46
2024/04/05 01:32:16;;;;;;;18.00;3.60;;;16.40;87.40;;;;;;4187220;28;20046;-47
2024/04/05 01:34:56;;;;;;;14.45;4.03;;;16.40;87.50;;;;;;4186559;28;20047;-47
2024/04/05 01:37:35;;;;;;;20.70;4.70;;;16.40;87.30;;;;;;4186113;28;20480;-45
2024/04/05 01:40:17;;;;;;;18.35;4.60;;;16.30;87.60;;;;;;4186960;28;20553;-45
2024/04/05 01:42:56;;;;;;;23.10;4.93;;;16.30;87.40;;;;;;4186935;28;20078;-47
2024/04/05 01:45:36;;;;;;;22.08;4.43;;;16.30;87.40;;;;;;4182198;28;20162;-47
2024/04/05 01:48:15;;;;;;;22.70;4.95;;;16.40;87.50;;;;;;4186646;28;20072;-45
2024/04/05 01:50:55;;;;;;;17.20;4.15;;;16.40;87.20;;;;;;4200412;28;20074;-45
2024/04/05 01:53:34;;;;;;;16.20;3.88;;;16.30;86.90;;;;;;4191485;28;20131;-45
2024/04/05 01:56:15;;;;;;;17.05;4.05;;;16.30;87.10;;;;;;4203320;28;20131;-46
2024/04/05 01:58:54;;;;;;;;;;;16.30;87.10;;;;;;4204240;28;20220;-46
2024/04/05 02:01:35;;;;;;;16.27;4.35;;;16.30;87.00;;;;;;4202634;28;19927;-45
2024/04/05 02:04:14;;;;;;;21.25;4.05;;;16.30;87.60;;;;;;4202985;28;20056;-47
2024/04/05 02:06:54;;;;;;;23.15;5.03;;;16.30;87.50;;;;;;4201468;27;20051;-46
2024/04/05 02:09:33;;;;;;;17.50;3.80;;;16.30;87.40;;;;;;4201486;28;20059;-45
2024/04/05 02:12:14;;;;;;;20.85;3.63;;;16.30;87.40;;;;;;4187979;28;20830;-45
2024/04/05 02:14:53;;;;;;;;;;;16.30;87.40;;;;;;4187404;28;20102;-45
2024/04/05 02:17:33;;;;;;;17.38;3.70;;;16.30;87.40;;;;;;4188358;28;19951;-45
2024/04/05 02:20:12;;;;;;;24.80;4.50;;;16.20;87.60;;;;;;4185799;28;20071;-44
2024/04/05 02:22:52;;;;;;;16.20;3.95;;;16.20;87.40;;;;;;4185599;28;20054;-46
2024/04/05 02:25:30;;;;;;;18.50;3.30;;;16.20;87.30;;;;;;4186154;28;20047;-46
2024/04/05 02:28:11;;;;;;;19.05;3.85;;;16.20;87.30;;;;;;4185937;28;20094;-46
2024/04/05 02:30:51;;;;;;;17.52;3.50;;;16.20;87.30;;;;;;4189666;28;20047;-45
2024/04/05 02:33:31;;;;;;;21.90;3.90;;;16.20;87.40;;;;;;4202880;28;20101;-47
2024/04/05 02:36:10;;;;;;;15.30;3.83;;;16.20;87.30;;;;;;4200507;28;20054;-45
2024/04/05 02:38:50;;;;;;;16.25;2.65;;;16.20;87.30;;;;;;4202716;28;20054;-45
2024/04/05 02:41:28;;;;;;;22.63;4.72;;;16.20;87.10;;;;;;4200884;28;20051;-50
2024/04/05 02:44:10;;;;;;;17.65;3.20;;;16.20;87.10;;;;;;4185979;28;20071;-45
2024/04/05 02:46:50;;;;;;;27.35;3.47;;;16.20;87.20;;;;;;4185278;28;20167;-46
2024/04/05 02:49:29;;;;;;;16.85;3.28;;;16.20;87.10;;;;;;4184881;28;20055;-46
2024/04/05 02:52:09;;;;;;;13.27;3.15;;;16.20;87.10;;;;;;4199941;28;20054;-45
2024/04/05 02:54:48;;;;;;;14.68;3.33;;;16.20;87.30;;;;;;4185825;28;20074;-45
2024/04/05 02:57:28;;;;;;;16.85;3.92;;;16.20;86.90;;;;;;4185198;28;20097;-44
2024/04/05 03:00:11;;;;;;;13.70;3.33;;;16.20;87.00;;;;;;4186428;28;20083;-45
2024/04/05 03:02:51;;;;;;;16.63;3.40;;;16.20;87.30;;;;;;4201860;28;20407;-45
2024/04/05 03:05:31;;;;;;;16.30;3.50;;;16.20;87.20;;;;;;4202445;28;20054;-46
2024/04/05 03:08:11;;;;;;;13.63;3.30;;;16.10;87.00;;;;;;4190364;28;20140;-45
2024/04/05 03:10:50;;;;;;;20.33;3.75;;;16.10;87.10;;;;;;4196223;28;20781;-39
2024/04/05 03:13:30;;;;;;;20.17;4.30;;;16.10;87.10;;;;;;4202926;28;20051;-39
2024/04/05 03:16:10;;;;;;;19.73;3.63;;;16.10;87.10;;;;;;4185632;28;20066;-40
2024/04/05 03:18:50;;;;;;;15.83;3.77;;;16.10;87.00;;;;;;4185416;28;20110;-39
2024/04/05 03:21:29;;;;;;;14.68;2.95;;;16.10;86.90;;;;;;4197199;28;20144;-40
2024/04/05 03:24:09;;;;;;;15.15;3.25;;;16.10;87.10;;;;;;4199321;28;20047;-39
2024/04/05 03:26:48;;;;;;;16.30;2.90;;;16.10;87.20;;;;;;4185473;28;20052;-39
2024/04/05 03:29:29;;;;;;;20.42;4.88;;;16.10;87.50;;;;;;4188713;28;20071;-39
2024/04/05 03:32:10;;;;;;;25.48;4.65;;;16.10;87.50;;;;;;4204680;28;20105;-39
2024/04/05 03:34:50;;;;;;;20.10;3.20;;;16.10;87.60;;;;;;4191413;28;20541;-40
2024/04/05 03:37:30;;;;;;;24.35;4.13;;;16.10;88.50;;;;;;4187947;28;20056;-39
2024/04/05 03:40:12;;;;;;;15.65;3.05;;;16.10;87.70;;;;;;4189301;27;20051;-39
2024/04/05 03:42:52;;;;;;;18.63;3.78;;;16.10;87.80;;;;;;4177910;28;20052;-40
2024/04/05 03:45:31;;;;;;;20.48;3.60;;;16.10;87.70;;;;;;4177853;28;20083;-39
2024/04/05 03:48:13;;;;;;;21.33;3.35;;;16.10;87.70;;;;;;4186765;28;20101;-39
2024/04/05 03:50:53;;;;;;;17.70;4.43;;;16.10;87.80;;;;;;4193214;28;20128;-39
2024/04/05 03:53:32;;;;;;;18.80;5.10;;;16.10;87.70;;;;;;4205084;28;20082;-39
2024/04/05 03:56:11;;;;;;;15.00;3.65;;;16.10;87.80;;;;;;4191749;28;20186;-39
2024/04/05 03:58:52;;;;;;;19.38;5.00;;;16.10;87.80;;;;;;4204613;28;20449;-39
2024/04/05 04:01:31;;;;;;;20.90;4.32;;;16.10;87.90;;;;;;4204412;28;20077;-39
2024/04/05 04:04:12;;;;;;;14.98;3.85;;;16.10;88.00;;;;;;4204988;28;20055;-39
2024/04/05 04:06:51;;;;;;;16.02;3.67;;;16.10;88.10;;;;;;4205585;28;20105;-39
2024/04/05 04:09:31;;;;;;;17.88;3.25;;;16.10;88.00;;;;;;4193932;28;20175;-39
2024/04/05 04:12:10;;;;;;;18.10;4.22;;;16.10;88.00;;;;;;4185894;28;20063;-39
2024/04/05 04:14:50;;;;;;;18.80;4.43;;;16.10;88.80;;;;;;4188004;28;20105;-39
2024/04/05 04:17:30;;;;;;;21.83;4.57;;;16.10;88.10;;;;;;4199776;28;20055;-38
2024/04/05 04:20:12;;;;;;;13.30;3.83;;;16.00;88.10;;;;;;4204224;28;20180;-38
2024/04/05 04:22:51;;;;;;;13.63;4.40;;;16.00;88.00;;;;;;4199184;28;20052;-39
2024/04/05 04:25:30;;;;;;;22.83;3.63;;;16.10;88.10;;;;;;4186749;28;20047;-40
2024/04/05 04:28:09;;;;;;;22.38;5.22;;;16.00;88.00;;;;;;4187900;28;20059;-39
2024/04/05 04:30:50;;;;;;;13.63;3.20;;;16.00;88.00;;;;;;4191570;28;20105;-39
2024/04/05 04:33:30;;;;;;;14.70;3.28;;;16.10;88.00;;;;;;4194644;28;20055;-39
2024/04/05 04:36:11;;;;;;;14.82;3.20;;;16.00;88.00;;;;;;4187438;28;20529;-40
2024/04/05 04:38:51;;;;;;;;;;;16.00;88.10;;;;;;4202485;28;20124;-39
2024/04/05 04:41:31;;;;;;;17.25;3.55;;;16.00;88.20;;;;;;4193734;28;19931;-39
2024/04/05 04:44:11;;;;;;;12.57;2.83;;;16.00;88.90;;;;;;4187534;28;20118;-39
2024/04/05 04:46:50;;;;;;;15.30;3.13;;;16.00;88.50;;;;;;4187631;28;20129;-39
2024/04/05 04:49:30;;;;;;;19.85;3.92;;;16.00;88.50;;;;;;4187096;28;20047;-40
2024/04/05 04:52:10;;;;;;;15.25;3.88;;;16.00;88.50;;;;;;4186991;28;20122;-38
2024/04/05 04:54:50;;;;;;;16.92;2.95;;;16.00;88.40;;;;;;4175450;28;20113;-38
2024/04/05 04:57:32;;;;;;;16.57;3.10;;;16.00;88.70;;;;;;4186859;28;20060;-39
2024/04/05 05:00:14;;;;;;;14.20;2.47;;;16.10;88.90;;;;;;4187701;28;20126;-39
2024/04/05 05:02:53;;;;;;;18.23;3.00;;;16.00;88.90;;;;;;4191186;28;20070;-39
2024/04/05 05:05:33;;;;;;;9.88;2.55;;;16.00;88.90;;;;;;4191581;28;20124;-39
2024/04/05 05:08:14;;;;;;;10.45;3.08;;;16.00;89.00;;;;;;4199505;28;20102;-39
2024/04/05 05:10:54;;;;;;;14.02;2.70;;;16.10;88.90;;;;;;4202688;28;20514;-39
2024/04/05 05:13:33;;;;;;;18.15;2.97;;;16.00;89.70;;;;;;4202837;28;20070;-38
2024/04/05 05:16:16;;;;;;;18.95;3.72;;;16.00;88.80;;;;;;4203031;28;20529;-39
2024/04/05 05:18:55;;;;;;;13.48;2.60;;;16.00;88.80;;;;;;4186125;28;20059;-38
2024/04/05 05:21:35;;;;;;;12.20;3.05;;;16.00;88.80;;;;;;4185628;28;20577;-39
2024/04/05 05:24:16;;;;;;;13.80;2.85;;;16.00;88.80;;;;;;4203290;28;20047;-39
2024/04/05 05:26:56;;;;;;;14.13;2.63;;;16.00;88.90;;;;;;4202997;28;20210;-39
2024/04/05 05:29:35;;;;;;;14.50;3.63;;;16.00;88.90;;;;;;4203267;28;20047;-39
2024/04/05 05:32:15;;;;;;;9.63;2.85;;;16.00;89.80;;;;;;4186958;28;20506;-39
2024/04/05 05:34:54;;;;;;;14.32;3.22;;;16.00;89.00;;;;;;4195308;28;20177;-39
2024/04/05 05:37:34;;;;;;;14.82;2.92;;;16.00;89.00;;;;;;4200163;28;20082;-39
2024/04/05 05:40:15;;;;;;;9.70;3.70;;;16.00;89.10;;;;;;4203445;28;20047;-39
2024/04/05 05:42:55;;;;;;;21.08;3.15;;;16.00;89.10;;;;;;4185784;28;20059;-39
2024/04/05 05:45:34;;;;;;;13.00;2.97;;;16.00;89.10;;;;;;4186259;28;20453;-39
2024/04/05 05:48:14;;;;;;;13.23;3.05;;;16.00;89.10;;;;;;4186767;28;20140;-45
2024/04/05 05:50:53;;;;;;;15.73;3.55;;;16.00;89.10;;;;;;4180580;28;20131;-39
2024/04/05 05:53:33;;;;;;;14.13;2.70;;;16.00;89.20;;;;;;4202701;28;20055;-39
2024/04/05 05:56:14;;;;;;;11.85;2.92;;;16.00;89.20;;;;;;4186114;28;20502;-46
2024/04/05 05:58:54;;;;;;;15.55;3.00;;;16.00;89.30;;;;;;4186025;28;20406;-45
2024/04/05 06:01:33;;;;;;;16.35;3.05;;;16.00;89.30;;;;;;4188823;28;20126;-38
2024/04/05 06:04:14;;;;;;;16.83;3.10;;;16.00;89.40;;;;;;4200085;28;20120;-39
2024/04/05 06:06:54;;;;;;;12.18;3.10;;;15.90;89.40;;;;;;4185619;28;20083;-39
2024/04/05 06:09:34;;;;;;;8.52;2.95;;;15.90;89.50;;;;;;4187205;28;20051;-39
2024/04/05 06:12:14;;;;;;;13.10;3.33;;;16.00;89.60;;;;;;4201894;28;20177;-39
2024/04/05 06:14:55;;;;;;;16.98;3.60;;;16.00;89.60;;;;;;4200700;28;20055;-39
2024/04/05 06:17:35;;;;;;;15.60;3.17;;;16.00;89.60;;;;;;4190577;28;20451;-39
2024/04/05 06:20:16;;;;;;;10.35;2.50;;;15.90;89.60;;;;;;4200339;28;20047;-39
2024/04/05 06:22:55;;;;;;;12.88;3.28;;;16.00;89.70;;;;;;4190699;28;20124;-38
2024/04/05 06:25:36;;;;;;;14.50;3.13;;;16.00;89.70;;;;;;4199850;28;20046;-39
2024/04/05 06:28:17;;;;;;;14.85;3.25;;;16.00;89.70;;;;;;4202202;28;20054;-39
2024/04/05 06:30:57;;;;;;;16.98;3.42;;;15.90;89.70;;;;;;4202222;28;20050;-39
2024/04/05 06:33:36;;;;;;;13.15;2.97;;;16.00;89.70;;;;;;4185673;28;20135;-39
2024/04/05 06:36:17;;;;;;;15.93;2.72;;;16.00;89.90;;;;;;4184272;28;20074;-39
2024/04/05 06:38:55;;;;;;;9.95;2.33;;;16.00;89.80;;;;;;4185040;28;20510;-39
2024/04/05 06:41:35;;;;;;;9.38;3.00;;;16.00;90.10;;;;;;4185665;28;20054;-39
2024/04/05 06:44:17;;;;;;;12.13;3.25;;;16.10;90.10;;;;;;4193002;28;20387;-44
2024/04/05 06:46:57;;;;;;;11.70;3.35;;;16.20;89.90;;;;;;4184967;28;20062;-44
2024/04/05 06:49:37;;;;;;;12.25;2.97;;;16.30;89.60;;;;;;4184978;28;20048;-39
2024/04/05 06:52:17;;;;;;;15.48;2.83;;;16.30;89.10;;;;;;4185770;28;20059;-43
2024/04/05 06:54:56;;;;;;;10.68;2.75;;;16.40;88.80;;;;;;4191332;28;20125;-44
2024/04/05 06:57:38;;;;;;;13.20;3.35;;;16.40;88.40;;;;;;4194941;28;20078;-44
2024/04/05 07:00:19;;;;;;;13.38;2.67;;;16.50;88.10;;;;;;4189884;28;20050;-43
2024/04/05 07:03:00;;;;;;;13.35;2.72;;;16.50;87.80;;;;;;4202608;28;20181;-43
2024/04/05 07:05:39;;;;;;;14.27;2.72;;;16.50;87.60;;;;;;4204847;28;20193;-44
2024/04/05 07:08:19;;;;;;;11.73;3.30;;;16.50;87.50;;;;;;4204465;28;20548;-45
2024/04/05 07:10:58;;;;;;;10.52;4.10;;;16.50;87.40;;;;;;4180083;28;20051;-44
2024/04/05 07:13:38;;;;;;;15.15;3.50;;;16.50;87.40;;;;;;4198281;27;20105;-46
2024/04/05 07:16:18;;;;;;;18.10;3.15;;;16.50;87.50;;;;;;4186137;28;20059;-44
2024/04/05 07:18:59;;;;;;;13.70;2.47;;;16.50;87.50;;;;;;4196053;28;20101;-44
2024/04/05 07:21:38;;;;;;;14.23;2.83;;;16.50;87.50;;;;;;4175149;28;20119;-44
2024/04/05 07:24:18;;;;;;;10.35;2.72;;;16.50;87.60;;;;;;4171339;28;20454;-44
2024/04/05 07:26:59;;;;;;;13.45;3.45;;;16.40;87.60;;;;;;4188510;28;20059;-39
2024/04/05 07:29:38;;;;;;;10.30;2.70;;;16.40;87.80;;;;;;4187725;28;20059;-39
2024/04/05 07:32:20;;;;;;;11.25;2.08;;;16.40;87.80;;;;;;4185975;28;20128;-39
2024/04/05 07:34:59;;;;;;;;;;;16.40;88.10;;;;;;4204059;28;20058;-39
2024/04/05 07:37:39;;;;;;;8.80;2.53;;;16.40;89.00;;;;;;4193503;28;19927;-41
2024/04/05 07:40:20;;;;;;;13.38;3.38;;;16.40;88.30;;;;;;4204878;28;20505;-42
2024/04/05 07:43:00;;;;;;;8.52;2.47;;;16.40;88.30;;;;;;4204250;28;20145;-41
2024/04/05 07:45:39;;;;;;;16.70;2.97;;;16.40;88.40;;;;;;4204998;28;20394;-44
2024/04/05 07:48:21;;;;;;;11.88;2.92;;;16.40;88.70;;;;;;4205668;28;20051;-44
2024/04/05 07:51:00;;;;;;;4.43;1.42;;;16.40;88.70;;;;;;4198975;28;20067;-44
2024/04/05 07:53:41;;;;;;;7.43;2.60;;;16.40;88.80;;;;;;4192947;28;20063;-39
2024/04/05 07:56:21;;;;;;;8.57;2.90;;;16.40;88.90;;;;;;4203598;28;20079;-39
2024/04/05 07:59:01;;;;;;;9.32;2.47;;;16.30;89.00;;;;;;4199481;28;20071;-44
2024/04/05 08:01:42;;;;;;;9.10;2.13;;;16.40;89.00;;;;;;4189455;28;20101;-44
2024/04/05 08:04:23;;;;;;;9.50;2.60;;;16.30;89.10;;;;;;4204812;28;20089;-43
2024/04/05 08:07:03;;;;;;;9.02;3.03;;;16.30;90.00;;;;;;4204398;28;20143;-43
2024/04/05 08:09:44;;;;;;;16.63;3.50;;;16.30;89.30;;;;;;4204886;28;20105;-43
2024/04/05 08:12:23;;;;;;;12.23;3.05;;;16.30;89.40;;;;;;4202011;28;20548;-45
2024/04/05 08:15:03;;;;;;;8.75;2.63;;;16.40;89.50;;;;;;4203746;28;20130;-44
2024/04/05 08:17:43;;;;;;;10.60;3.20;;;16.30;89.40;;;;;;4201392;28;20509;-44
2024/04/05 08:20:25;;;;;;;10.13;2.95;;;16.30;89.50;;;;;;4204456;28;20402;-43
2024/04/05 08:23:04;;;;;;;12.45;3.33;;;16.30;89.50;;;;;;4199675;28;20106;-44
2024/04/05 08:25:43;;;;;;;11.77;2.92;;;16.30;89.50;;;;;;4187886;28;20059;-44
2024/04/05 08:28:23;;;;;;;12.35;2.85;;;16.30;89.60;;;;;;4196239;27;20055;-44
2024/04/05 08:31:04;;;;;;;13.23;3.67;;;16.30;89.60;;;;;;4201667;28;20113;-44
2024/04/05 08:33:43;;;;;;;13.80;3.40;;;16.30;89.70;;;;;;4201430;28;20185;-44
2024/04/05 08:36:24;;;;;;;9.05;2.83;;;16.30;89.70;;;;;;4201350;28;20407;-44
2024/04/05 08:39:03;;;;;;;;;;;16.30;89.80;;;;;;4201791;28;20046;-43
2024/04/05 08:41:47;;;;;;;8.18;2.88;;;16.30;89.80;;;;;;4201480;28;19985;-44
2024/04/05 08:44:29;;;;;;;7.60;2.58;;;16.30;90.20;;;;;;4201229;28;20442;-44
2024/04/05 08:47:09;;;;;;;8.15;2.38;;;16.30;89.90;;;;;;4202019;28;20070;-43
2024/04/05 08:49:51;;;;;;;14.63;3.03;;;16.30;90.00;;;;;;4202122;28;20448;-44
2024/04/05 08:52:34;;;;;;;8.27;3.17;;;16.40;90.00;;;;;;4201876;28;20058;-44
2024/04/05 08:55:13;;;;;;;8.85;2.78;;;16.40;90.10;;;;;;4201949;28;20101;-44
2024/04/05 08:57:55;;;;;;;9.75;2.95;;;16.40;90.10;;;;;;4190264;28;20410;-43
2024/04/05 09:00:34;;;;;;;;;;;16.40;90.10;;;;;;4189123;28;20054;-45
2024/04/05 09:03:15;;;;;;;8.80;2.78;;;16.40;90.10;;;;;;4199478;28;19976;-39
2024/04/05 09:05:55;;;;;;;9.38;2.72;;;16.40;90.10;;;;;;4200462;28;20054;-39
2024/04/05 09:08:46;;;;;;;10.75;2.35;;;16.40;90.10;;;;;;4201572;28;20054;-39
2024/04/05 09:11:25;;;;;;;10.23;2.78;;;16.40;90.20;;;;;;4200148;28;20455;-39
2024/04/05 09:14:05;;;;;;;10.43;2.58;;;16.40;90.20;;;;;;4185116;28;20076;-39
2024/04/05 09:16:44;;;;;;;7.25;2.70;;;16.40;90.20;;;;;;4186722;28;20047;-39
2024/04/05 09:19:25;;;;;;;8.13;2.58;;;16.40;90.20;;;;;;4200682;28;20082;-39
2024/04/05 09:22:05;;;;;;;9.50;2.70;;;16.40;90.20;;;;;;4200522;28;20193;-39
2024/04/05 09:24:46;;;;;;;6.85;2.60;;;16.40;90.20;;;;;;4200176;28;20075;-39
2024/04/05 09:27:26;;;;;;;11.63;2.92;;;16.40;90.30;;;;;;4201495;28;20108;-39
2024/04/05 09:30:08;;;;;;;6.55;2.38;;;16.50;90.20;;;;;;4201388;28;20050;-39
2024/04/05 09:32:48;;;;;;;9.70;2.45;;;16.40;90.30;;;;;;4198656;28;20067;-39
2024/04/05 09:35:31;;;;;;;5.22;2.10;;;16.40;90.30;;;;;;4200928;28;20063;-39
2024/04/05 09:38:10;;;;;;;9.85;3.55;;;16.40;90.40;;;;;;4189215;28;20043;-43
2024/04/05 09:40:53;;;;;;;10.43;3.00;;;16.40;90.50;;;;;;4199675;28;20105;-47
2024/04/05 09:43:33;;;;;;;6.57;2.30;;;16.40;90.60;;;;;;4199202;28;20059;-43
2024/04/05 09:46:14;;;;;;;10.27;2.85;;;16.40;90.70;;;;;;4200857;28;20086;-45
2024/04/05 09:48:55;;;;;;;9.68;2.80;;;16.40;90.70;;;;;;4200061;28;20101;-43
2024/04/05 09:51:44;;;;;;;8.85;3.25;;;16.40;90.80;;;;;;4200799;28;20074;-43
2024/04/05 09:54:24;;;;;;;7.15;2.45;;;16.40;90.90;;;;;;4199470;28;20071;-42
2024/04/05 09:57:10;;;;;;;11.30;2.53;;;16.30;90.90;;;;;;4200750;28;20054;-41
2024/04/05 09:59:52;;;;;;;10.55;2.20;;;16.40;90.90;;;;;;4188635;28;20067;-43
2024/04/05 10:02:32;;;;;;;6.20;2.30;;;16.30;91.00;;;;;;4194373;28;20118;-43
2024/04/05 10:05:12;;;;;;;4.38;2.13;;;16.40;91.00;;;;;;4199878;28;20047;-43
2024/04/05 10:07:51;;;;;;;9.00;2.38;;;16.40;91.10;;;;;;4200357;28;20136;-41
2024/04/05 10:10:33;;;;;;;7.75;1.85;;;16.40;91.10;;;;;;4200450;28;20524;-42
2024/04/05 10:13:15;;;;;;;5.10;1.90;;;16.40;91.20;;;;;;4199568;28;20100;-43
2024/04/05 10:15:57;;;;;;;5.88;2.08;;;16.40;91.20;;;;;;4200632;28;20567;-43
2024/04/05 10:18:39;;;;;;;8.77;2.10;;;16.40;91.30;;;;;;4199877;28;20077;-41
2024/04/05 10:21:20;;;;;;;6.30;2.25;;;16.30;91.30;;;;;;4200488;28;20105;-43
2024/04/05 10:23:59;;;;;;;5.35;2.35;;;16.30;91.40;;;;;;4198753;28;20505;-41
2024/04/05 10:26:51;;;;;;;6.43;2.42;;;16.30;91.50;;;;;;4199936;28;20096;-43
2024/04/05 10:29:32;;;;;;;6.75;2.08;;;16.30;91.50;;;;;;4200105;28;20082;-41
2024/04/05 10:32:12;;;;;;;7.37;2.30;;;16.30;91.50;;;;;;4199361;28;20069;-43
2024/04/05 10:34:51;;;;;;;6.22;1.88;;;16.30;91.60;;;;;;4200176;28;20979;-41
2024/04/05 10:37:32;;;;;;;6.55;2.00;;;16.30;91.60;;;;;;4199941;28;20140;-41
2024/04/05 10:40:12;;;;;;;6.78;2.10;;;16.30;91.60;;;;;;4200103;28;20054;-41
2024/04/05 10:42:52;;;;;;;7.18;2.63;;;16.30;91.70;;;;;;4183237;28;20051;-39
2024/04/05 10:45:33;;;;;;;5.72;1.98;;;16.30;91.70;;;;;;4183116;28;20101;-39
2024/04/05 10:48:14;;;;;;;7.00;2.15;;;16.30;91.70;;;;;;4183698;28;20051;-39
2024/04/05 10:50:53;;;;;;;6.72;2.38;;;16.30;91.70;;;;;;4200343;28;20113;-39
2024/04/05 10:53:34;;;;;;;6.22;2.03;;;16.30;91.80;;;;;;4185897;28;20067;-39
2024/04/05 10:56:15;;;;;;;6.35;2.63;;;16.30;91.80;;;;;;4199176;28;20140;-39
2024/04/05 10:58:55;;;;;;;7.65;3.03;;;16.30;91.80;;;;;;4200258;28;20513;-39
2024/04/05 11:01:37;;;;;;;9.27;3.00;;;16.30;91.80;;;;;;4200428;28;20059;-39
2024/04/05 11:04:24;;;;;;;6.10;2.15;;;16.30;92.20;;;;;;4199679;28;20057;-39
2024/04/05 11:07:04;;;;;;;7.47;2.90;;;16.30;91.90;;;;;;4199886;28;20181;-39
2024/04/05 11:09:44;;;;;;;6.00;2.25;;;16.30;91.90;;;;;;4199628;28;20082;-39
2024/04/05 11:12:24;;;;;;;4.72;2.40;;;16.30;92.00;;;;;;4200590;28;20552;-38
2024/04/05 11:15:05;;;;;;;9.70;2.72;;;16.30;92.00;;;;;;4199191;28;20140;-38
2024/04/05 11:17:56;;;;;;;5.72;2.53;;;16.30;92.00;;;;;;4188408;28;20098;-39
2024/04/05 11:20:39;;;;;;;7.47;2.50;;;16.30;92.00;;;;;;4198077;28;20058;-39
2024/04/05 11:23:19;;;;;;;7.22;2.35;;;16.40;92.10;;;;;;4198432;28;20055;-39
2024/04/05 11:26:00;;;;;;;6.22;2.40;;;16.30;92.10;;;;;;4196147;28;20052;-39
2024/04/05 11:28:44;;;;;;;5.57;2.03;;;16.40;92.20;;;;;;4195314;28;20051;-39
2024/04/05 11:31:26;;;;;;;8.90;2.42;;;16.40;92.20;;;;;;4202881;28;20463;-39
2024/04/05 11:34:06;;;;;;;4.70;2.58;;;16.40;92.20;;;;;;4203036;28;20460;-39
2024/04/05 11:36:46;;;;;;;6.57;2.13;;;16.40;92.40;;;;;;4190531;28;20100;-39
2024/04/05 11:39:27;;;;;;;6.07;2.42;;;16.40;92.30;;;;;;4190335;28;20128;-39
2024/04/05 11:42:08;;;;;;;7.32;1.90;;;16.40;92.50;;;;;;4202391;28;20140;-39
2024/04/05 11:44:48;;;;;;;3.85;2.00;;;16.40;92.40;;;;;;4202780;28;20056;-39
2024/04/05 11:47:28;;;;;;;4.15;2.15;;;16.40;92.50;;;;;;4172398;28;20099;-39
2024/04/05 11:50:09;;;;;;;3.85;1.88;;;16.40;92.50;;;;;;4172165;28;20381;-39
2024/04/05 11:52:49;;;;;;;4.40;2.88;;;16.30;92.50;;;;;;4172615;28;20059;-39
2024/04/05 11:55:29;;;;;;;6.07;2.88;;;16.30;92.60;;;;;;4173174;28;20056;-39
2024/04/05 11:58:09;;;;;;;2.97;1.70;;;16.30;92.70;;;;;;4188601;28;20121;-40
2024/04/05 12:00:50;;;;;;;7.95;2.58;;;16.30;92.80;;;;;;4188829;28;20412;-39
2024/04/05 12:03:31;;;;;;;5.68;2.55;;;16.30;92.80;;;;;;4188326;28;20561;-39
2024/04/05 12:06:12;;;;;;;7.45;3.05;;;16.30;92.70;;;;;;4188961;28;20391;-39
2024/04/05 12:08:52;;;;;;;8.63;2.17;;;16.30;92.90;;;;;;4176269;28;20129;-39
2024/04/05 12:11:31;;;;;;;6.10;2.75;;;16.30;92.80;;;;;;4192322;27;20047;-39
2024/04/05 12:14:11;;;;;;;4.65;2.13;;;16.30;92.90;;;;;;4205778;28;20547;-39
2024/04/05 12:16:50;;;;;;;6.22;2.13;;;16.30;92.90;;;;;;4205018;28;20414;-39
2024/04/05 12:19:30;;;;;;;4.13;2.35;;;16.30;92.90;;;;;;4205162;28;20058;-39
2024/04/05 12:22:11;;;;;;;7.20;2.22;;;16.30;92.80;;;;;;4204178;28;20135;-39
2024/04/05 12:24:51;;;;;;;5.90;2.53;;;16.30;92.90;;;;;;4204909;28;20090;-39
2024/04/05 12:27:30;;;;;;;5.13;2.60;;;16.30;93.00;;;;;;4203593;28;20101;-39
2024/04/05 12:30:12;;;;;;;6.88;2.35;;;16.30;92.90;;;;;;4188283;28;20101;-39
2024/04/05 12:32:51;;;;;;;5.38;2.13;;;16.30;93.00;;;;;;4187857;28;20064;-39
2024/04/05 12:35:32;;;;;;;5.55;2.42;;;16.30;93.00;;;;;;4187820;28;20121;-39
2024/04/05 12:38:12;;;;;;;;;;;16.30;93.00;;;;;;4188623;28;20510;-39
2024/04/05 12:40:56;;;;;;;4.93;2.28;;;16.20;92.90;;;;;;4188366;28;19927;-39
2024/04/05 12:43:37;;;;;;;3.03;2.13;;;16.30;92.80;;;;;;4190865;28;20055;-39
2024/04/05 12:46:17;;;;;;;3.15;1.85;;;16.20;92.80;;;;;;4204810;28;20051;-39
2024/04/05 12:48:56;;;;;;;4.20;1.95;;;16.20;93.00;;;;;;4187994;28;20058;-39
2024/04/05 12:51:36;;;;;;;5.90;2.17;;;16.20;93.00;;;;;;4187765;28;20490;-39
2024/04/05 12:54:16;;;;;;;5.25;2.58;;;16.30;93.10;;;;;;4191524;28;20094;-39
2024/04/05 12:56:57;;;;;;;3.10;2.05;;;16.20;93.10;;;;;;4204362;28;20149;-39
2024/04/05 12:59:36;;;;;;;4.10;2.50;;;16.20;93.20;;;;;;4192528;28;20047;-44
2024/04/05 13:02:16;;;;;;;6.57;2.30;;;16.20;93.20;;;;;;4203717;28;20050;-45
2024/04/05 13:04:55;;;;;;;5.28;2.30;;;16.20;93.20;;;;;;4203079;28;20128;-45
2024/04/05 13:07:35;;;;;;;5.60;2.50;;;16.30;93.30;;;;;;4195972;28;20132;-44
2024/04/05 13:10:16;;;;;;;4.70;2.17;;;16.20;93.30;;;;;;4174307;28;20152;-46
2024/04/05 13:12:56;;;;;;;8.45;3.30;;;16.30;93.40;;;;;;4188769;28;20761;-44
2024/04/05 13:15:36;;;;;;;6.50;2.00;;;16.30;93.60;;;;;;4197828;28;20047;-44
2024/04/05 13:18:17;;;;;;;5.85;2.28;;;16.30;93.40;;;;;;4184955;28;20136;-47
2024/04/05 13:21:04;;;;;;;5.03;2.28;;;16.30;93.40;;;;;;4204357;28;20047;-47
2024/04/05 13:23:45;;;;;;;2.50;2.10;;;16.30;93.40;;;;;;4182129;28;20063;-39
2024/04/05 13:26:26;;;;;;;1.90;1.60;;;16.30;93.40;;;;;;4203417;28;20517;-39
2024/04/05 13:29:06;;;;;;;3.95;1.60;;;16.30;93.50;;;;;;4203089;28;20093;-39
2024/04/05 13:31:45;;;;;;;2.28;1.92;;;16.40;93.40;;;;;;4203268;28;20213;-39
2024/04/05 13:34:25;;;;;;;3.35;1.90;;;16.40;93.40;;;;;;4202381;28;20406;-40
2024/04/05 13:37:04;;;;;;;3.35;1.27;;;16.40;93.30;;;;;;4203333;28;20101;-39
2024/04/05 13:39:44;;;;;;;2.85;1.33;;;16.50;93.40;;;;;;4190458;28;20083;-39
2024/04/05 13:42:24;;;;;;;1.92;1.45;;;16.50;93.40;;;;;;4186398;28;20055;-45
2024/04/05 13:45:05;;;;;;;2.80;1.40;;;16.50;93.40;;;;;;4171944;28;20411;-39
2024/04/05 13:47:44;;;;;;;3.95;1.40;;;16.50;93.20;;;;;;4202948;28;20513;-39
2024/04/05 13:50:24;;;;;;;4.50;1.58;;;16.60;93.00;;;;;;4202646;28;20054;-39